sensor_id;sensor_type;location;lat;lon;timestamp;temperature;humidity
7564;DHT22;3823;53.586;10.040;2023-07-31T04:02:34;16.20;13.50
7564;DHT22;3823;53.586;10.040;2023-07-31T04:04:59;16.30;1.00
7564;DHT22;3823;53.586;10.040;2023-07-31T04:07:25;16.30;1.00
7564;DHT22;3823;53.586;10.040;2023-07-31T04:09:50;16.30;2.10
7564;DHT22;3823;53.586;10.040;2023-07-31T04:12:16;16.30;8.90
7564;DHT22;3823;53.586;10.040;2023-07-31T04:14:41;16.30;3.80
7564;DHT22;3823;53.586;10.040;2023-07-31T04:17:07;16.30;3.20
7564;DHT22;3823;53.586;10.040;2023-07-31T04:19:32;16.30;3.80
7564;DHT22;3823;53.586;10.040;2023-07-31T04:21:58;16.30;13.40
7564;DHT22;3823;53.586;10.040;2023-07-31T04:24:23;16.30;15.80
7564;DHT22;3823;53.586;10.040;2023-07-31T04:26:52;16.20;17.70
7564;DHT22;3823;53.586;10.040;2023-07-31T04:29:18;16.20;28.30
7564;DHT22;3823;53.586;10.040;2023-07-31T04:31:44;16.20;28.30
7564;DHT22;3823;53.586;10.040;2023-07-31T04:34:09;16.20;26.00
7564;DHT22;3823;53.586;10.040;2023-07-31T04:36:35;16.10;25.60
7564;DHT22;3823;53.586;10.040;2023-07-31T04:39:01;16.10;27.30
7564;DHT22;3823;53.586;10.040;2023-07-31T04:41:26;16.20;28.80
7564;DHT22;3823;53.586;10.040;2023-07-31T04:43:52;16.10;29.70
7564;DHT22;3823;53.586;10.040;2023-07-31T04:46:18;16.10;34.60
7564;DHT22;3823;53.586;10.040;2023-07-31T04:48:43;16.10;33.70
7564;DHT22;3823;53.586;10.040;2023-07-31T04:51:09;16.10;32.80
7564;DHT22;3823;53.586;10.040;2023-07-31T04:53:35;16.00;34.20
7564;DHT22;3823;53.586;10.040;2023-07-31T04:56:01;16.10;36.60
7564;DHT22;3823;53.586;10.040;2023-07-31T04:58:26;16.10;38.00
7564;DHT22;3823;53.586;10.040;2023-07-31T05:00:52;16.00;42.40
7564;DHT22;3823;53.586;10.040;2023-07-31T05:03:17;16.00;46.20
7564;DHT22;3823;53.586;10.040;2023-07-31T05:05:43;16.00;43.00
7564;DHT22;3823;53.586;10.040;2023-07-31T05:08:08;16.00;43.80
7564;DHT22;3823;53.586;10.040;2023-07-31T05:10:34;16.00;49.00
7564;DHT22;3823;53.586;10.040;2023-07-31T05:13:00;16.00;50.80
7564;DHT22;3823;53.586;10.040;2023-07-31T05:15:26;16.00;46.20
7564;DHT22;3823;53.586;10.040;2023-07-31T05:17:51;15.90;49.80
7564;DHT22;3823;53.586;10.040;2023-07-31T05:20:17;15.90;50.20
7564;DHT22;3823;53.586;10.040;2023-07-31T05:22:42;15.90;50.40
7564;DHT22;3823;53.586;10.040;2023-07-31T05:25:08;16.00;44.00
7564;DHT22;3823;53.586;10.040;2023-07-31T05:27:34;16.00;41.10
7564;DHT22;3823;53.586;10.040;2023-07-31T05:29:59;16.00;45.80
7564;DHT22;3823;53.586;10.040;2023-07-31T05:32:25;16.00;36.50
7564;DHT22;3823;53.586;10.040;2023-07-31T05:34:51;16.00;45.40
7564;DHT22;3823;53.586;10.040;2023-07-31T05:37:17;16.00;43.90
7564;DHT22;3823;53.586;10.040;2023-07-31T05:39:43;16.00;40.50
7564;DHT22;3823;53.586;10.040;2023-07-31T05:42:09;15.90;44.80
7564;DHT22;3823;53.586;10.040;2023-07-31T05:44:34;16.00;51.50
7564;DHT22;3823;53.586;10.040;2023-07-31T05:47:00;15.90;52.60
7564;DHT22;3823;53.586;10.040;2023-07-31T05:49:25;15.90;53.60
7564;DHT22;3823;53.586;10.040;2023-07-31T05:51:51;15.90;53.10
7564;DHT22;3823;53.586;10.040;2023-07-31T05:54:16;16.00;56.40
7564;DHT22;3823;53.586;10.040;2023-07-31T05:56:42;16.00;52.80
7564;DHT22;3823;53.586;10.040;2023-07-31T05:59:09;16.00;56.00
7564;DHT22;3823;53.586;10.040;2023-07-31T06:01:35;16.00;57.60
7564;DHT22;3823;53.586;10.040;2023-07-31T06:04:01;16.00;53.00
7564;DHT22;3823;53.586;10.040;2023-07-31T06:06:28;15.90;52.90
7564;DHT22;3823;53.586;10.040;2023-07-31T06:08:54;16.00;57.40
7564;DHT22;3823;53.586;10.040;2023-07-31T06:11:20;16.00;52.70
7564;DHT22;3823;53.586;10.040;2023-07-31T06:13:46;16.10;53.30
7564;DHT22;3823;53.586;10.040;2023-07-31T06:16:13;16.10;53.40
7564;DHT22;3823;53.586;10.040;2023-07-31T06:18:39;16.00;52.50
7564;DHT22;3823;53.586;10.040;2023-07-31T06:21:05;16.00;55.60
7564;DHT22;3823;53.586;10.040;2023-07-31T06:23:30;16.00;54.50
7564;DHT22;3823;53.586;10.040;2023-07-31T06:25:56;16.00;56.80
7564;DHT22;3823;53.586;10.040;2023-07-31T06:28:30;16.00;53.80
7564;DHT22;3823;53.586;10.040;2023-07-31T06:30:59;16.00;55.60
7564;DHT22;3823;53.586;10.040;2023-07-31T06:33:26;16.10;55.50
7564;DHT22;3823;53.586;10.040;2023-07-31T06:35:51;16.10;51.50
7564;DHT22;3823;53.586;10.040;2023-07-31T06:38:21;16.10;52.60
7564;DHT22;3823;53.586;10.040;2023-07-31T06:40:47;16.10;58.40
7564;DHT22;3823;53.586;10.040;2023-07-31T06:43:12;16.00;56.80
7564;DHT22;3823;53.586;10.040;2023-07-31T06:45:38;16.10;57.60
7564;DHT22;3823;53.586;10.040;2023-07-31T06:48:03;16.10;61.70
7564;DHT22;3823;53.586;10.040;2023-07-31T06:50:30;16.00;65.00
7564;DHT22;3823;53.586;10.040;2023-07-31T06:52:56;16.10;65.40
7564;DHT22;3823;53.586;10.040;2023-07-31T06:55:22;16.10;62.30
7564;DHT22;3823;53.586;10.040;2023-07-31T06:57:49;16.20;61.10
7564;DHT22;3823;53.586;10.040;2023-07-31T07:00:15;16.20;59.30
7564;DHT22;3823;53.586;10.040;2023-07-31T07:02:41;16.20;53.00
7564;DHT22;3823;53.586;10.040;2023-07-31T07:05:07;16.20;49.90
7564;DHT22;3823;53.586;10.040;2023-07-31T07:07:33;16.20;52.70
7564;DHT22;3823;53.586;10.040;2023-07-31T07:09:59;16.20;57.00
7564;DHT22;3823;53.586;10.040;2023-07-31T07:12:32;16.20;57.20
7564;DHT22;3823;53.586;10.040;2023-07-31T07:14:57;16.20;62.80
7564;DHT22;3823;53.586;10.040;2023-07-31T07:17:24;16.30;58.50
7564;DHT22;3823;53.586;10.040;2023-07-31T07:19:49;16.30;62.10
7564;DHT22;3823;53.586;10.040;2023-07-31T07:22:15;16.30;61.40
7564;DHT22;3823;53.586;10.040;2023-07-31T07:24:41;16.30;63.70
7564;DHT22;3823;53.586;10.040;2023-07-31T07:27:06;16.30;67.60
7564;DHT22;3823;53.586;10.040;2023-07-31T07:29:34;16.30;68.80
7564;DHT22;3823;53.586;10.040;2023-07-31T07:31:59;16.30;72.80
7564;DHT22;3823;53.586;10.040;2023-07-31T07:34:26;16.30;71.60
7564;DHT22;3823;53.586;10.040;2023-07-31T07:36:52;16.20;72.70
7564;DHT22;3823;53.586;10.040;2023-07-31T07:39:17;16.30;71.70
7564;DHT22;3823;53.586;10.040;2023-07-31T07:41:43;16.30;65.80
7564;DHT22;3823;53.586;10.040;2023-07-31T07:44:09;16.30;69.80
7564;DHT22;3823;53.586;10.040;2023-07-31T07:46:34;16.30;72.50
7564;DHT22;3823;53.586;10.040;2023-07-31T07:49:00;16.30;74.60
7564;DHT22;3823;53.586;10.040;2023-07-31T07:51:25;16.30;73.20
7564;DHT22;3823;53.586;10.040;2023-07-31T07:53:51;16.30;70.60
7564;DHT22;3823;53.586;10.040;2023-07-31T07:56:16;16.30;75.50
7564;DHT22;3823;53.586;10.040;2023-07-31T07:58:42;16.30;76.10
7564;DHT22;3823;53.586;10.040;2023-07-31T08:01:07;16.40;68.40
7564;DHT22;3823;53.586;10.040;2023-07-31T08:03:33;16.40;70.10
7564;DHT22;3823;53.586;10.040;2023-07-31T08:05:59;16.50;73.80
7564;DHT22;3823;53.586;10.040;2023-07-31T08:08:25;16.50;65.60
7564;DHT22;3823;53.586;10.040;2023-07-31T08:10:50;16.50;60.60
7564;DHT22;3823;53.586;10.040;2023-07-31T08:13:16;16.40;63.60
7564;DHT22;3823;53.586;10.040;2023-07-31T08:15:42;16.50;68.50
7564;DHT22;3823;53.586;10.040;2023-07-31T08:18:08;16.50;59.20
7564;DHT22;3823;53.586;10.040;2023-07-31T08:20:34;16.50;66.60
7564;DHT22;3823;53.586;10.040;2023-07-31T08:22:59;16.50;68.80
7564;DHT22;3823;53.586;10.040;2023-07-31T08:25:25;16.50;69.10
7564;DHT22;3823;53.586;10.040;2023-07-31T08:27:50;16.60;72.50
7564;DHT22;3823;53.586;10.040;2023-07-31T08:30:18;16.50;66.80
7564;DHT22;3823;53.586;10.040;2023-07-31T08:32:44;16.60;64.40
7564;DHT22;3823;53.586;10.040;2023-07-31T08:35:10;16.60;73.70
7564;DHT22;3823;53.586;10.040;2023-07-31T08:37:37;16.70;74.90
7564;DHT22;3823;53.586;10.040;2023-07-31T08:40:03;16.70;69.30
7564;DHT22;3823;53.586;10.040;2023-07-31T08:42:29;16.80;71.20
7564;DHT22;3823;53.586;10.040;2023-07-31T08:44:56;16.80;64.90
7564;DHT22;3823;53.586;10.040;2023-07-31T08:47:22;16.80;62.00
7564;DHT22;3823;53.586;10.040;2023-07-31T08:49:49;16.90;62.00
7564;DHT22;3823;53.586;10.040;2023-07-31T08:52:16;16.90;63.30
7564;DHT22;3823;53.586;10.040;2023-07-31T08:54:42;16.90;64.60
7564;DHT22;3823;53.586;10.040;2023-07-31T08:57:07;17.00;67.00
7564;DHT22;3823;53.586;10.040;2023-07-31T08:59:34;17.00;64.40
7564;DHT22;3823;53.586;10.040;2023-07-31T09:02:05;17.10;58.10
7564;DHT22;3823;53.586;10.040;2023-07-31T09:04:33;17.00;61.90
7564;DHT22;3823;53.586;10.040;2023-07-31T09:07:01;17.00;49.80
7564;DHT22;3823;53.586;10.040;2023-07-31T09:09:32;17.00;51.20
7564;DHT22;3823;53.586;10.040;2023-07-31T09:11:58;17.00;50.90
7564;DHT22;3823;53.586;10.040;2023-07-31T09:14:25;17.00;62.80
7564;DHT22;3823;53.586;10.040;2023-07-31T09:16:56;17.00;65.80
7564;DHT22;3823;53.586;10.040;2023-07-31T09:19:26;17.20;51.80
7564;DHT22;3823;53.586;10.040;2023-07-31T09:21:51;17.10;50.00
7564;DHT22;3823;53.586;10.040;2023-07-31T09:24:32;17.10;63.20
7564;DHT22;3823;53.586;10.040;2023-07-31T09:26:59;17.00;70.70
7564;DHT22;3823;53.586;10.040;2023-07-31T09:29:26;17.00;73.30
7564;DHT22;3823;53.586;10.040;2023-07-31T09:31:53;17.00;60.10
7564;DHT22;3823;53.586;10.040;2023-07-31T09:34:19;17.00;56.50
7564;DHT22;3823;53.586;10.040;2023-07-31T09:36:47;16.90;56.10
7564;DHT22;3823;53.586;10.040;2023-07-31T09:39:14;16.90;64.50
7564;DHT22;3823;53.586;10.040;2023-07-31T09:41:43;16.90;64.30
7564;DHT22;3823;53.586;10.040;2023-07-31T09:44:11;17.00;75.00
7564;DHT22;3823;53.586;10.040;2023-07-31T09:46:37;17.00;69.30
7564;DHT22;3823;53.586;10.040;2023-07-31T09:49:10;17.00;68.10
7564;DHT22;3823;53.586;10.040;2023-07-31T09:51:36;17.10;72.10
7564;DHT22;3823;53.586;10.040;2023-07-31T09:54:11;17.10;74.80
7564;DHT22;3823;53.586;10.040;2023-07-31T09:56:47;17.20;79.50
7564;DHT22;3823;53.586;10.040;2023-07-31T09:59:18;17.30;74.80
7564;DHT22;3823;53.586;10.040;2023-07-31T10:01:46;17.30;67.30
7564;DHT22;3823;53.586;10.040;2023-07-31T10:04:13;17.30;66.80
7564;DHT22;3823;53.586;10.040;2023-07-31T10:06:40;17.20;69.40
7564;DHT22;3823;53.586;10.040;2023-07-31T10:09:08;17.30;68.70
7564;DHT22;3823;53.586;10.040;2023-07-31T10:12:00;17.30;72.00
7564;DHT22;3823;53.586;10.040;2023-07-31T10:14:26;17.30;69.80
7564;DHT22;3823;53.586;10.040;2023-07-31T10:16:52;17.30;71.90
7564;DHT22;3823;53.586;10.040;2023-07-31T10:19:18;17.40;74.70
7564;DHT22;3823;53.586;10.040;2023-07-31T10:21:45;17.40;79.70
7564;DHT22;3823;53.586;10.040;2023-07-31T10:24:12;17.40;81.00
7564;DHT22;3823;53.586;10.040;2023-07-31T10:26:38;17.50;81.20
7564;DHT22;3823;53.586;10.040;2023-07-31T10:29:05;17.40;71.50
7564;DHT22;3823;53.586;10.040;2023-07-31T10:31:32;17.30;51.20
7564;DHT22;3823;53.586;10.040;2023-07-31T10:33:58;17.30;70.60
7564;DHT22;3823;53.586;10.040;2023-07-31T10:36:28;17.40;74.40
7564;DHT22;3823;53.586;10.040;2023-07-31T10:38:56;17.40;77.90
7564;DHT22;3823;53.586;10.040;2023-07-31T10:41:31;17.40;82.10
7564;DHT22;3823;53.586;10.040;2023-07-31T10:44:00;17.40;74.90
7564;DHT22;3823;53.586;10.040;2023-07-31T10:46:28;17.30;70.00
7564;DHT22;3823;53.586;10.040;2023-07-31T10:49:01;17.30;77.70
7564;DHT22;3823;53.586;10.040;2023-07-31T10:51:34;17.40;80.50
7564;DHT22;3823;53.586;10.040;2023-07-31T10:54:12;17.40;79.70
7564;DHT22;3823;53.586;10.040;2023-07-31T10:56:38;17.40;78.80
7564;DHT22;3823;53.586;10.040;2023-07-31T10:59:05;17.30;76.70
7564;DHT22;3823;53.586;10.040;2023-07-31T11:01:51;17.30;75.00
7564;DHT22;3823;53.586;10.040;2023-07-31T11:04:22;17.30;78.60
7564;DHT22;3823;53.586;10.040;2023-07-31T11:07:00;17.30;80.70
7564;DHT22;3823;53.586;10.040;2023-07-31T11:09:31;17.30;79.20
7564;DHT22;3823;53.586;10.040;2023-07-31T11:11:57;17.30;81.20
7564;DHT22;3823;53.586;10.040;2023-07-31T11:14:24;17.30;81.30
7564;DHT22;3823;53.586;10.040;2023-07-31T11:16:50;17.10;66.40
7564;DHT22;3823;53.586;10.040;2023-07-31T11:19:24;17.10;81.70
7564;DHT22;3823;53.586;10.040;2023-07-31T11:21:51;17.20;84.60
7564;DHT22;3823;53.586;10.040;2023-07-31T11:24:17;17.30;86.80
7564;DHT22;3823;53.586;10.040;2023-07-31T11:26:52;17.40;88.10
7564;DHT22;3823;53.586;10.040;2023-07-31T11:29:19;17.30;79.30
7564;DHT22;3823;53.586;10.040;2023-07-31T11:31:45;17.30;84.70
7564;DHT22;3823;53.586;10.040;2023-07-31T11:34:12;17.40;88.10
7564;DHT22;3823;53.586;10.040;2023-07-31T11:36:37;17.40;89.40
7564;DHT22;3823;53.586;10.040;2023-07-31T11:39:10;17.50;90.30
7564;DHT22;3823;53.586;10.040;2023-07-31T11:41:36;17.50;90.50
7564;DHT22;3823;53.586;10.040;2023-07-31T11:44:02;17.40;90.20
7564;DHT22;3823;53.586;10.040;2023-07-31T11:46:30;17.40;90.00
7564;DHT22;3823;53.586;10.040;2023-07-31T11:48:59;17.40;89.30
7564;DHT22;3823;53.586;10.040;2023-07-31T11:51:25;17.40;87.50
7564;DHT22;3823;53.586;10.040;2023-07-31T11:53:54;17.30;84.80
7564;DHT22;3823;53.586;10.040;2023-07-31T11:56:21;17.30;87.90
7564;DHT22;3823;53.586;10.040;2023-07-31T11:58:51;17.30;89.20
7564;DHT22;3823;53.586;10.040;2023-07-31T12:01:19;17.20;88.70
7564;DHT22;3823;53.586;10.040;2023-07-31T12:03:46;17.20;84.90
7564;DHT22;3823;53.586;10.040;2023-07-31T12:06:12;17.10;82.90
7564;DHT22;3823;53.586;10.040;2023-07-31T12:08:38;17.10;78.70
7564;DHT22;3823;53.586;10.040;2023-07-31T12:11:04;17.10;83.60
7564;DHT22;3823;53.586;10.040;2023-07-31T12:13:31;17.10;84.50
7564;DHT22;3823;53.586;10.040;2023-07-31T12:15:58;17.10;87.20
7564;DHT22;3823;53.586;10.040;2023-07-31T12:18:26;17.20;89.20
7564;DHT22;3823;53.586;10.040;2023-07-31T12:20:59;17.20;88.30
7564;DHT22;3823;53.586;10.040;2023-07-31T12:23:27;17.30;87.60
7564;DHT22;3823;53.586;10.040;2023-07-31T12:28:35;17.30;88.10
7564;DHT22;3823;53.586;10.040;2023-07-31T12:31:02;17.30;86.20
7564;DHT22;3823;53.586;10.040;2023-07-31T12:33:32;17.30;86.70
7564;DHT22;3823;53.586;10.040;2023-07-31T12:36:00;17.30;88.50
7564;DHT22;3823;53.586;10.040;2023-07-31T12:38:26;17.30;88.20
7564;DHT22;3823;53.586;10.040;2023-07-31T12:40:51;17.30;89.40
7564;DHT22;3823;53.586;10.040;2023-07-31T12:43:17;17.40;90.50
7564;DHT22;3823;53.586;10.040;2023-07-31T12:45:42;17.40;90.90
7564;DHT22;3823;53.586;10.040;2023-07-31T12:48:08;17.50;90.10
7564;DHT22;3823;53.586;10.040;2023-07-31T12:50:33;17.40;84.80
7564;DHT22;3823;53.586;10.040;2023-07-31T12:53:02;17.40;84.70
7564;DHT22;3823;53.586;10.040;2023-07-31T12:55:28;17.40;87.20
7564;DHT22;3823;53.586;10.040;2023-07-31T12:57:55;17.40;87.00
7564;DHT22;3823;53.586;10.040;2023-07-31T13:00:21;17.40;87.40
7564;DHT22;3823;53.586;10.040;2023-07-31T13:02:47;17.50;85.50
7564;DHT22;3823;53.586;10.040;2023-07-31T13:05:13;17.50;86.70
7564;DHT22;3823;53.586;10.040;2023-07-31T13:07:39;17.50;88.70
7564;DHT22;3823;53.586;10.040;2023-07-31T13:10:05;17.50;83.30
7564;DHT22;3823;53.586;10.040;2023-07-31T13:12:31;17.50;87.60
7564;DHT22;3823;53.586;10.040;2023-07-31T13:14:57;17.60;90.10
7564;DHT22;3823;53.586;10.040;2023-07-31T13:17:22;17.60;88.20
7564;DHT22;3823;53.586;10.040;2023-07-31T13:19:48;17.60;87.90
7564;DHT22;3823;53.586;10.040;2023-07-31T13:22:13;17.60;87.70
7564;DHT22;3823;53.586;10.040;2023-07-31T13:24:39;17.60;88.90
7564;DHT22;3823;53.586;10.040;2023-07-31T13:27:05;17.50;86.50
7564;DHT22;3823;53.586;10.040;2023-07-31T13:29:30;17.40;88.60
7564;DHT22;3823;53.586;10.040;2023-07-31T13:31:56;17.30;88.70
7564;DHT22;3823;53.586;10.040;2023-07-31T13:34:21;17.30;89.20
7564;DHT22;3823;53.586;10.040;2023-07-31T13:36:47;17.30;90.20
7564;DHT22;3823;53.586;10.040;2023-07-31T13:39:12;17.20;90.60
7564;DHT22;3823;53.586;10.040;2023-07-31T13:41:38;17.10;88.20
7564;DHT22;3823;53.586;10.040;2023-07-31T13:44:03;17.00;89.50
7564;DHT22;3823;53.586;10.040;2023-07-31T13:46:29;16.90;91.20
7564;DHT22;3823;53.586;10.040;2023-07-31T13:48:54;17.10;92.20
7564;DHT22;3823;53.586;10.040;2023-07-31T13:51:21;17.10;92.50
7564;DHT22;3823;53.586;10.040;2023-07-31T13:53:47;17.20;92.40
7564;DHT22;3823;53.586;10.040;2023-07-31T13:56:13;17.20;92.40
7564;DHT22;3823;53.586;10.040;2023-07-31T13:58:38;17.30;92.50
7564;DHT22;3823;53.586;10.040;2023-07-31T14:01:04;17.20;92.00
7564;DHT22;3823;53.586;10.040;2023-07-31T14:03:30;17.20;92.00
7564;DHT22;3823;53.586;10.040;2023-07-31T14:05:55;17.20;91.40
7564;DHT22;3823;53.586;10.040;2023-07-31T14:08:21;17.10;91.30
7564;DHT22;3823;53.586;10.040;2023-07-31T14:10:47;17.20;92.10
7564;DHT22;3823;53.586;10.040;2023-07-31T14:13:12;17.30;92.30
7564;DHT22;3823;53.586;10.040;2023-07-31T14:15:39;17.20;91.90
7564;DHT22;3823;53.586;10.040;2023-07-31T14:18:04;17.20;92.10
7564;DHT22;3823;53.586;10.040;2023-07-31T14:20:30;17.30;92.40
7564;DHT22;3823;53.586;10.040;2023-07-31T14:22:55;17.40;92.50
7564;DHT22;3823;53.586;10.040;2023-07-31T14:25:21;17.40;92.20
7564;DHT22;3823;53.586;10.040;2023-07-31T14:27:47;17.30;91.60
7564;DHT22;3823;53.586;10.040;2023-07-31T14:30:12;17.30;92.50
7564;DHT22;3823;53.586;10.040;2023-07-31T14:32:38;17.30;92.10
7564;DHT22;3823;53.586;10.040;2023-07-31T14:35:04;17.20;91.80
7564;DHT22;3823;53.586;10.040;2023-07-31T14:37:43;17.20;92.40
7564;DHT22;3823;53.586;10.040;2023-07-31T14:40:11;17.20;92.80
7564;DHT22;3823;53.586;10.040;2023-07-31T14:42:38;17.30;93.10
7564;DHT22;3823;53.586;10.040;2023-07-31T14:45:07;17.30;93.20
7564;DHT22;3823;53.586;10.040;2023-07-31T14:47:33;17.20;92.90
7564;DHT22;3823;53.586;10.040;2023-07-31T14:49:59;17.20;93.00
7564;DHT22;3823;53.586;10.040;2023-07-31T14:52:25;17.20;93.20
7564;DHT22;3823;53.586;10.040;2023-07-31T14:54:51;17.30;93.40
7564;DHT22;3823;53.586;10.040;2023-07-31T14:57:17;17.30;93.40
7564;DHT22;3823;53.586;10.040;2023-07-31T14:59:42;17.30;93.40
7564;DHT22;3823;53.586;10.040;2023-07-31T15:02:09;17.30;93.40
7564;DHT22;3823;53.586;10.040;2023-07-31T15:04:35;17.40;93.50
7564;DHT22;3823;53.586;10.040;2023-07-31T15:07:00;17.40;93.90
7564;DHT22;3823;53.586;10.040;2023-07-31T15:09:26;17.50;94.00
7564;DHT22;3823;53.586;10.040;2023-07-31T15:11:51;17.50;94.00
7564;DHT22;3823;53.586;10.040;2023-07-31T15:14:17;17.60;94.00
7564;DHT22;3823;53.586;10.040;2023-07-31T15:16:42;17.70;94.30
7564;DHT22;3823;53.586;10.040;2023-07-31T15:19:08;17.60;94.50
7564;DHT22;3823;53.586;10.040;2023-07-31T15:21:36;17.70;94.70
7564;DHT22;3823;53.586;10.040;2023-07-31T15:24:01;17.70;94.80
7564;DHT22;3823;53.586;10.040;2023-07-31T15:26:27;17.80;94.90
7564;DHT22;3823;53.586;10.040;2023-07-31T15:29:01;17.80;95.10
7564;DHT22;3823;53.586;10.040;2023-07-31T15:31:28;17.80;95.10
7564;DHT22;3823;53.586;10.040;2023-07-31T15:33:53;17.90;95.30
7564;DHT22;3823;53.586;10.040;2023-07-31T15:36:19;17.90;95.50
7564;DHT22;3823;53.586;10.040;2023-07-31T15:38:44;18.00;95.70
7564;DHT22;3823;53.586;10.040;2023-07-31T15:41:11;18.00;95.80
7564;DHT22;3823;53.586;10.040;2023-07-31T15:43:36;18.00;95.90
7564;DHT22;3823;53.586;10.040;2023-07-31T15:46:02;18.00;96.00
7564;DHT22;3823;53.586;10.040;2023-07-31T15:48:27;18.10;95.90
7564;DHT22;3823;53.586;10.040;2023-07-31T15:50:53;18.00;95.80
7564;DHT22;3823;53.586;10.040;2023-07-31T15:53:19;18.10;96.10
7564;DHT22;3823;53.586;10.040;2023-07-31T15:55:44;18.00;95.90
7564;DHT22;3823;53.586;10.040;2023-07-31T15:58:10;18.00;96.00
7564;DHT22;3823;53.586;10.040;2023-07-31T16:00:35;18.00;96.30
7564;DHT22;3823;53.586;10.040;2023-07-31T16:03:01;18.00;96.00
7564;DHT22;3823;53.586;10.040;2023-07-31T16:05:26;17.90;96.10
7564;DHT22;3823;53.586;10.040;2023-07-31T16:07:52;17.90;96.20
7564;DHT22;3823;53.586;10.040;2023-07-31T16:10:17;17.90;96.20
7564;DHT22;3823;53.586;10.040;2023-07-31T16:12:43;17.90;96.00
7564;DHT22;3823;53.586;10.040;2023-07-31T16:15:08;17.90;96.00
7564;DHT22;3823;53.586;10.040;2023-07-31T16:17:34;17.90;96.20
7564;DHT22;3823;53.586;10.040;2023-07-31T16:20:00;18.00;96.20
7564;DHT22;3823;53.586;10.040;2023-07-31T16:22:25;17.90;96.10
7564;DHT22;3823;53.586;10.040;2023-07-31T16:24:51;17.90;96.20
7564;DHT22;3823;53.586;10.040;2023-07-31T16:27:16;17.90;96.30
7564;DHT22;3823;53.586;10.040;2023-07-31T16:29:45;17.90;96.40
7564;DHT22;3823;53.586;10.040;2023-07-31T16:32:11;17.90;96.40
7564;DHT22;3823;53.586;10.040;2023-07-31T16:34:36;17.90;96.40
7564;DHT22;3823;53.586;10.040;2023-07-31T16:37:02;17.90;96.30
7564;DHT22;3823;53.586;10.040;2023-07-31T16:39:27;17.90;96.40
7564;DHT22;3823;53.586;10.040;2023-07-31T16:41:53;17.80;96.30
7564;DHT22;3823;53.586;10.040;2023-07-31T16:44:19;17.90;96.40
7564;DHT22;3823;53.586;10.040;2023-07-31T16:46:44;17.80;96.40
7564;DHT22;3823;53.586;10.040;2023-07-31T16:49:10;17.80;96.40
7564;DHT22;3823;53.586;10.040;2023-07-31T16:51:36;17.90;96.40
7564;DHT22;3823;53.586;10.040;2023-07-31T16:54:01;17.90;96.40
7564;DHT22;3823;53.586;10.040;2023-07-31T16:56:27;17.90;96.50
7564;DHT22;3823;53.586;10.040;2023-07-31T16:58:52;17.80;96.10
7564;DHT22;3823;53.586;10.040;2023-07-31T17:01:20;17.80;96.30
7564;DHT22;3823;53.586;10.040;2023-07-31T17:03:45;17.80;96.40
7564;DHT22;3823;53.586;10.040;2023-07-31T17:06:11;17.80;96.40
7564;DHT22;3823;53.586;10.040;2023-07-31T17:08:36;17.80;96.40
7564;DHT22;3823;53.586;10.040;2023-07-31T17:11:02;17.80;96.40
7564;DHT22;3823;53.586;10.040;2023-07-31T17:13:27;17.80;96.50
7564;DHT22;3823;53.586;10.040;2023-07-31T17:15:53;17.80;96.50
7564;DHT22;3823;53.586;10.040;2023-07-31T17:18:18;17.80;96.50
7564;DHT22;3823;53.586;10.040;2023-07-31T17:20:44;17.80;96.50
7564;DHT22;3823;53.586;10.040;2023-07-31T17:23:09;17.80;96.40
7564;DHT22;3823;53.586;10.040;2023-07-31T17:25:38;17.80;96.40
7564;DHT22;3823;53.586;10.040;2023-07-31T17:28:03;17.80;96.50
7564;DHT22;3823;53.586;10.040;2023-07-31T17:30:29;17.80;96.60
7564;DHT22;3823;53.586;10.040;2023-07-31T17:32:55;17.80;96.70
7564;DHT22;3823;53.586;10.040;2023-07-31T17:35:20;17.80;96.60
7564;DHT22;3823;53.586;10.040;2023-07-31T17:37:46;17.80;96.80
7564;DHT22;3823;53.586;10.040;2023-07-31T17:40:11;17.80;96.80
7564;DHT22;3823;53.586;10.040;2023-07-31T17:42:37;17.90;96.90
7564;DHT22;3823;53.586;10.040;2023-07-31T17:45:02;17.90;96.90
7564;DHT22;3823;53.586;10.040;2023-07-31T17:47:28;17.90;96.90
7564;DHT22;3823;53.586;10.040;2023-07-31T17:49:53;18.00;97.10
7564;DHT22;3823;53.586;10.040;2023-07-31T17:52:19;18.00;96.90
7564;DHT22;3823;53.586;10.040;2023-07-31T17:54:45;18.00;97.00
7564;DHT22;3823;53.586;10.040;2023-07-31T17:57:10;18.00;97.20
7564;DHT22;3823;53.586;10.040;2023-07-31T17:59:36;18.00;96.80
7564;DHT22;3823;53.586;10.040;2023-07-31T18:02:01;17.90;96.70
7564;DHT22;3823;53.586;10.040;2023-07-31T18:04:27;17.90;96.80
7564;DHT22;3823;53.586;10.040;2023-07-31T18:06:52;18.00;97.10
7564;DHT22;3823;53.586;10.040;2023-07-31T18:09:18;18.00;96.70
7564;DHT22;3823;53.586;10.040;2023-07-31T18:11:44;18.00;96.60
7564;DHT22;3823;53.586;10.040;2023-07-31T18:14:09;18.00;96.70
7564;DHT22;3823;53.586;10.040;2023-07-31T18:16:35;18.00;96.60
7564;DHT22;3823;53.586;10.040;2023-07-31T18:19:00;18.00;96.90
7564;DHT22;3823;53.586;10.040;2023-07-31T18:21:26;18.10;96.40
7564;DHT22;3823;53.586;10.040;2023-07-31T18:23:52;18.10;96.90
7564;DHT22;3823;53.586;10.040;2023-07-31T18:26:17;18.20;96.40
7564;DHT22;3823;53.586;10.040;2023-07-31T18:28:43;18.10;96.20
7564;DHT22;3823;53.586;10.040;2023-07-31T18:31:08;18.10;96.60
7564;DHT22;3823;53.586;10.040;2023-07-31T18:33:34;18.00;97.20
7564;DHT22;3823;53.586;10.040;2023-07-31T18:36:02;18.00;97.50
7564;DHT22;3823;53.586;10.040;2023-07-31T18:38:28;17.90;97.30
7564;DHT22;3823;53.586;10.040;2023-07-31T18:40:57;17.90;97.20
7564;DHT22;3823;53.586;10.040;2023-07-31T18:43:22;17.90;97.40
7564;DHT22;3823;53.586;10.040;2023-07-31T18:45:48;17.90;97.40
7564;DHT22;3823;53.586;10.040;2023-07-31T18:48:13;17.90;97.50
7564;DHT22;3823;53.586;10.040;2023-07-31T18:50:42;17.90;97.50
7564;DHT22;3823;53.586;10.040;2023-07-31T18:53:08;17.90;97.30
7564;DHT22;3823;53.586;10.040;2023-07-31T18:55:34;17.90;97.20
7564;DHT22;3823;53.586;10.040;2023-07-31T18:57:59;17.90;97.40
7564;DHT22;3823;53.586;10.040;2023-07-31T19:00:25;17.90;97.60
7564;DHT22;3823;53.586;10.040;2023-07-31T19:02:50;17.90;97.10
7564;DHT22;3823;53.586;10.040;2023-07-31T19:05:16;17.90;96.80
7564;DHT22;3823;53.586;10.040;2023-07-31T19:07:43;17.90;96.90
7564;DHT22;3823;53.586;10.040;2023-07-31T19:10:09;17.90;96.40
7564;DHT22;3823;53.586;10.040;2023-07-31T19:12:35;17.90;96.80
7564;DHT22;3823;53.586;10.040;2023-07-31T19:15:00;17.90;97.20
7564;DHT22;3823;53.586;10.040;2023-07-31T19:17:26;17.90;97.00
7564;DHT22;3823;53.586;10.040;2023-07-31T19:19:51;17.90;96.80
7564;DHT22;3823;53.586;10.040;2023-07-31T19:22:17;17.90;96.60
7564;DHT22;3823;53.586;10.040;2023-07-31T19:24:42;17.90;96.90
7564;DHT22;3823;53.586;10.040;2023-07-31T19:27:08;18.00;95.70
7564;DHT22;3823;53.586;10.040;2023-07-31T19:29:33;17.90;95.70
7564;DHT22;3823;53.586;10.040;2023-07-31T19:31:59;17.90;96.50
7564;DHT22;3823;53.586;10.040;2023-07-31T19:34:24;17.90;96.40
7564;DHT22;3823;53.586;10.040;2023-07-31T19:36:50;17.90;96.60
7564;DHT22;3823;53.586;10.040;2023-07-31T19:39:17;17.90;96.30
7564;DHT22;3823;53.586;10.040;2023-07-31T19:41:42;17.80;96.70
7564;DHT22;3823;53.586;10.040;2023-07-31T19:44:08;17.90;96.40
7564;DHT22;3823;53.586;10.040;2023-07-31T19:46:35;17.90;96.50